createdAt,value
2023-03-24T00:01:34.303Z,99572.23
2023-03-24T00:02:45.440Z,99576.01
2023-03-24T00:03:55.114Z,99580.70
2023-03-24T00:06:26.745Z,99564.88
2023-03-24T00:08:55.364Z,99566.80
2023-03-24T00:10:10.738Z,99570.98
2023-03-24T00:12:42.869Z,99563.08
2023-03-24T00:15:11.774Z,99559.61
2023-03-24T00:16:21.519Z,99566.30
2023-03-24T00:18:48.619Z,99563.94
2023-03-24T00:19:58.160Z,99571.69
2023-03-24T00:21:09.515Z,99552.69
2023-03-24T00:22:20.546Z,99550.54
2023-03-24T00:24:50.194Z,99546.31
2023-03-24T00:27:24.061Z,99536.67
2023-03-24T00:29:51.696Z,99534.96
2023-03-24T00:32:21.546Z,99547.20
2023-03-24T00:33:34.359Z,99547.84
2023-03-24T00:34:44.642Z,99554.08
2023-03-24T00:37:10.404Z,99544.88
2023-03-24T00:38:20.542Z,99554.95
2023-03-24T00:40:48.558Z,99555.33
2023-03-24T00:42:00.177Z,99551.84
2023-03-24T00:44:26.694Z,99552.59
2023-03-24T00:46:57.457Z,99539.48
2023-03-24T00:48:07.673Z,99546.89
2023-03-24T00:49:17.517Z,99548.98
2023-03-24T00:51:43.323Z,99528.20
2023-03-24T00:54:12.019Z,99524.98
2023-03-24T00:56:43.915Z,99519.81
2023-03-24T00:59:11.412Z,99526.56
2023-03-24T01:00:24.828Z,99521.39
2023-03-24T01:01:36.650Z,99521.69
2023-03-24T01:04:02.396Z,99521.22
2023-03-24T01:06:29.048Z,99519.73
2023-03-24T01:08:56.573Z,99529.20
2023-03-24T01:11:26.513Z,99513.55
2023-03-24T01:13:54.845Z,99516.25
2023-03-24T01:16:24.760Z,99527.16
2023-03-24T01:18:50.268Z,99520.33
2023-03-24T01:19:59.435Z,99520.27
2023-03-24T01:22:30.635Z,99511.45
2023-03-24T01:24:58.150Z,99508.30
2023-03-24T01:26:09.687Z,99517.98
2023-03-24T01:27:20.550Z,99515.55
2023-03-24T01:28:30.020Z,99512.66
2023-03-24T01:30:56.328Z,99518.62
2023-03-24T01:33:24.148Z,99512.25
2023-03-24T01:35:50.984Z,99516.73
2023-03-24T01:38:17.440Z,99513.50
2023-03-24T01:40:45.974Z,99516.66
2023-03-24T01:43:19.853Z,99506.73
2023-03-24T01:46:10.498Z,99510.17
2023-03-24T01:47:20.940Z,99512.86
2023-03-24T01:50:03.280Z,99504.30
2023-03-24T01:52:42.330Z,99500.44
2023-03-24T01:55:19.498Z,99498.07
2023-03-24T01:57:58.036Z,99501.61
2023-03-24T02:00:29.048Z,99504.63
2023-03-24T02:03:04.059Z,99489.58
2023-03-24T02:05:35.770Z,99496.08
2023-03-24T02:06:46.833Z,99503.53
2023-03-24T02:09:15.703Z,99491.10
2023-03-24T02:10:26.149Z,99503.98
2023-03-24T02:11:37.230Z,99516.46
2023-03-24T02:12:48.717Z,99509.02
2023-03-24T02:15:16.940Z,99514.11
2023-03-24T02:18:20.529Z,99518.20
2023-03-24T02:21:50.239Z,99516.66
2023-03-24T02:23:15.824Z,99524.62
2023-03-24T02:28:25.333Z,99512.75
2023-03-24T02:31:56.278Z,99519.34
2023-03-24T02:35:07.073Z,99516.83
2023-03-24T02:39:54.412Z,99514.94
2023-03-24T02:43:33.823Z,99519.98
2023-03-24T02:47:33.811Z,99514.46
2023-03-24T02:50:19.692Z,99516.55
2023-03-24T02:53:05.450Z,99519.34
2023-03-24T02:55:54.916Z,99519.00
2023-03-24T02:58:47.568Z,99525.86
2023-03-24T03:01:30.016Z,99530.96
2023-03-24T03:04:14.274Z,99545.20
2023-03-24T03:06:58.470Z,99539.25
2023-03-24T03:10:04.081Z,99538.50
2023-03-24T03:12:35.872Z,99530.69
2023-03-24T03:15:25.389Z,99538.55
2023-03-24T03:18:09.541Z,99538.19
2023-03-24T03:20:46.932Z,99541.86
2023-03-24T03:23:16.687Z,99532.06
2023-03-24T03:25:56.247Z,99533.83
2023-03-24T03:29:53.946Z,99535.52
2023-03-24T03:31:07.626Z,99550.61
2023-03-24T03:32:24.951Z,99547.08
2023-03-24T03:35:03.699Z,99539.88
2023-03-24T03:38:01.744Z,99544.91
2023-03-24T03:42:06.907Z,99541.59
2023-03-24T03:44:33.950Z,99536.63
2023-03-24T03:47:00.536Z,99544.37
2023-03-24T03:49:32.428Z,99532.48
2023-03-24T03:50:42.762Z,99538.28
2023-03-24T03:53:09.671Z,99552.45
2023-03-24T03:55:39.942Z,99552.98
2023-03-24T03:58:06.622Z,99544.12
2023-03-24T03:59:34.671Z,99545.17
2023-03-24T04:00:46.551Z,99549.58
2023-03-24T04:04:33.134Z,99559.17
2023-03-24T04:11:27.456Z,99560.42
2023-03-24T04:15:37.758Z,99553.98
2023-03-24T04:17:40.370Z,99569.21
2023-03-24T04:20:22.042Z,99566.44
2023-03-24T04:23:17.194Z,99573.27
2023-03-24T04:26:14.642Z,99563.55
2023-03-24T04:29:26.300Z,99574.20
2023-03-24T04:32:07.664Z,99576.10
2023-03-24T04:34:42.147Z,99582.53
2023-03-24T04:36:06.906Z,99579.78
2023-03-24T04:38:52.664Z,99584.74
2023-03-24T04:41:30.174Z,99587.16
2023-03-24T04:44:12.939Z,99587.34
2023-03-24T04:46:40.673Z,99588.59
2023-03-24T04:47:57.331Z,99593.19
2023-03-24T04:50:04.659Z,99592.21
2023-03-24T04:52:33.704Z,99595.30
2023-03-24T04:55:01.596Z,99599.44
2023-03-24T04:56:29.958Z,99605.61
2023-03-24T04:58:58.117Z,99615.09
2023-03-24T05:01:29.194Z,99613.14
2023-03-24T05:04:14.466Z,99615.97
2023-03-24T05:06:39.139Z,99618.31
2023-03-24T05:09:04.653Z,99620.87
2023-03-24T05:11:31.175Z,99612.92
2023-03-24T05:13:56.909Z,99614.39
2023-03-24T05:16:23.768Z,99614.53
2023-03-24T05:18:53.955Z,99615.38
2023-03-24T05:21:21.305Z,99609.38
2023-03-24T05:23:45.567Z,99610.49
2023-03-24T05:26:10.919Z,99602.98
2023-03-24T05:28:37.294Z,99606.22
2023-03-24T05:31:02.732Z,99603.80
2023-03-24T05:32:54.575Z,99610.23
2023-03-24T05:34:03.743Z,99615.08
2023-03-24T05:36:29.030Z,99613.91
2023-03-24T05:38:56.118Z,99620.94
2023-03-24T05:41:27.116Z,99616.73
2023-03-24T05:43:51.328Z,99633.03
2023-03-24T05:46:15.590Z,99643.55
2023-03-24T05:48:42.728Z,99644.39
2023-03-24T05:51:12.556Z,99636.78
2023-03-24T05:53:38.805Z,99630.55
2023-03-24T05:57:16.181Z,99627.72
2023-03-24T05:59:52.652Z,99628.69
2023-03-24T06:02:25.106Z,99626.98
2023-03-24T06:04:56.889Z,99627.44
2023-03-24T06:07:25.251Z,99626.06
2023-03-24T06:09:52.130Z,99629.45
2023-03-24T06:12:23.367Z,99629.09
2023-03-24T06:14:54.837Z,99630.50
2023-03-24T06:17:22.995Z,99630.91
2023-03-24T06:19:58.246Z,99632.41
2023-03-24T06:22:25.300Z,99633.34
2023-03-24T06:25:01.016Z,99625.67
2023-03-24T06:27:38.769Z,99616.84
2023-03-24T06:30:08.057Z,99628.92
2023-03-24T06:32:47.653Z,99619.13
2023-03-24T06:35:16.998Z,99621.95
2023-03-24T06:37:54.815Z,99623.25
2023-03-24T06:40:21.923Z,99627.23
2023-03-24T06:42:49.279Z,99621.52
2023-03-24T06:45:15.496Z,99621.67
2023-03-24T06:47:40.145Z,99617.12
2023-03-24T06:50:08.138Z,99615.13
2023-03-24T06:52:36.177Z,99612.41
2023-03-24T06:55:03.292Z,99608.70
2023-03-24T06:57:37.636Z,99616.82
2023-03-24T07:00:39.139Z,99622.52
2023-03-24T07:03:09.977Z,99626.51
2023-03-24T07:05:41.743Z,99632.06
2023-03-24T07:08:33.804Z,99634.91
2023-03-24T07:10:40.843Z,99637.91
2023-03-24T07:13:07.277Z,99635.34
2023-03-24T07:15:53.188Z,99633.92
2023-03-24T07:18:18.804Z,99633.63
2023-03-24T07:20:48.849Z,99632.46
2023-03-24T07:23:17.060Z,99631.18
2023-03-24T07:25:59.349Z,99629.02
2023-03-24T07:28:42.188Z,99625.52
2023-03-24T07:31:27.805Z,99624.10
2023-03-24T07:33:54.892Z,99635.05
2023-03-24T07:35:12.659Z,99643.50
2023-03-24T07:37:42.371Z,99634.33
2023-03-24T07:40:10.486Z,99639.18
2023-03-24T07:42:36.133Z,99637.03
2023-03-24T07:45:19.940Z,99633.63
2023-03-24T07:47:51.635Z,99641.55
2023-03-24T07:50:18.577Z,99629.06
2023-03-24T07:52:50.131Z,99634.33
2023-03-24T07:55:19.083Z,99633.48
2023-03-24T07:58:00.782Z,99638.02
2023-03-24T08:00:28.643Z,99637.61
2023-03-24T08:02:55.202Z,99641.44
2023-03-24T08:06:22.020Z,99638.73
2023-03-24T08:08:50.169Z,99640.86
2023-03-24T08:11:18.774Z,99636.63
2023-03-24T08:13:43.497Z,99637.03
2023-03-24T08:16:09.329Z,99637.47
2023-03-24T08:17:18.404Z,99635.59
2023-03-24T08:19:56.444Z,99637.33
2023-03-24T08:22:14.304Z,99641.59
2023-03-24T08:24:40.295Z,99621.95
2023-03-24T08:27:07.624Z,99620.40
2023-03-24T08:29:34.560Z,99626.80
2023-03-24T08:32:00.406Z,99628.51
2023-03-24T08:34:29.903Z,99623.80
2023-03-24T08:36:56.319Z,99625.93
2023-03-24T08:38:08.237Z,99637.77
2023-03-24T08:40:34.708Z,99626.80
2023-03-24T08:43:02.462Z,99622.50
2023-03-24T08:44:11.718Z,99625.51
2023-03-24T08:45:24.063Z,99629.78
2023-03-24T08:47:52.322Z,99622.06
2023-03-24T08:50:42.035Z,99618.63
2023-03-24T08:53:08.488Z,99620.20
2023-03-24T08:55:33.940Z,99620.29
2023-03-24T08:57:57.853Z,99611.84
2023-03-24T09:00:23.149Z,99604.28
2023-03-24T09:02:54.288Z,99612.20
2023-03-24T09:05:36.703Z,99611.20
2023-03-24T09:07:51.237Z,99612.89
2023-03-24T09:10:17.329Z,99603.39
2023-03-24T09:12:42.773Z,99612.98
2023-03-24T09:15:11.754Z,99604.69
2023-03-24T09:17:40.508Z,99599.27
2023-03-24T09:20:10.456Z,99603.47
2023-03-24T09:22:37.652Z,99594.80
2023-03-24T09:25:02.481Z,99595.84
2023-03-24T09:27:29.929Z,99609.11
2023-03-24T09:29:56.659Z,99611.31
2023-03-24T09:32:22.532Z,99609.69
2023-03-24T09:34:49.020Z,99605.03
2023-03-24T09:37:38.051Z,99605.67
2023-03-24T09:40:04.963Z,99605.52
2023-03-24T09:42:36.751Z,99600.64
2023-03-24T09:45:21.298Z,99600.09
2023-03-24T09:48:02.049Z,99599.33
2023-03-24T09:50:38.091Z,99598.61
2023-03-24T09:53:09.434Z,99595.44
2023-03-24T09:55:43.119Z,99595.44
2023-03-24T09:58:13.017Z,99604.52
2023-03-24T10:00:51.169Z,99590.74
2023-03-24T10:03:23.420Z,99595.43
2023-03-24T10:05:58.253Z,99594.55
2023-03-24T10:09:10.433Z,99599.60
2023-03-24T10:12:14.126Z,99592.27
2023-03-24T10:15:07.413Z,99590.95
2023-03-24T10:17:49.398Z,99589.84
2023-03-24T10:20:40.793Z,99601.91
2023-03-24T10:23:36.821Z,99588.51
2023-03-24T10:26:27.939Z,99589.41
2023-03-24T10:30:36.639Z,99578.85
2023-03-24T10:34:14.237Z,99575.16
2023-03-24T10:36:44.476Z,99563.95
2023-03-24T10:39:21.083Z,99570.94
2023-03-24T10:41:48.958Z,99566.50
2023-03-24T10:44:15.045Z,99560.04
2023-03-24T10:46:51.528Z,99576.27
2023-03-24T10:49:38.067Z,99554.31
2023-03-24T10:52:07.476Z,99559.20
2023-03-24T10:54:34.735Z,99552.30
2023-03-24T10:58:26.407Z,99565.78
2023-03-24T11:02:43.522Z,99543.96
2023-03-24T11:05:22.987Z,99546.17
2023-03-24T11:06:33.431Z,99542.73
2023-03-24T11:07:47.238Z,99550.04
2023-03-24T11:09:18.595Z,99557.55
2023-03-24T11:11:43.528Z,99546.51
2023-03-24T11:14:27.292Z,99540.69
2023-03-24T11:16:56.708Z,99536.91
2023-03-24T11:19:38.569Z,99541.22
2023-03-24T11:22:10.588Z,99536.80
2023-03-24T11:24:39.476Z,99538.51
2023-03-24T11:27:22.929Z,99533.91
2023-03-24T11:29:55.985Z,99532.55
2023-03-24T11:32:29.161Z,99529.01
2023-03-24T11:35:07.854Z,99521.84
2023-03-24T11:37:50.889Z,99530.73
2023-03-24T11:40:24.913Z,99531.59
2023-03-24T11:42:57.806Z,99529.73
2023-03-24T11:45:41.259Z,99524.12
2023-03-24T11:48:41.820Z,99511.23
2023-03-24T11:51:12.094Z,99506.29
2023-03-24T11:53:46.580Z,99500.02
2023-03-24T11:57:54.113Z,99488.13
2023-03-24T12:02:23.115Z,99494.93
2023-03-24T12:05:30.909Z,99487.95
2023-03-24T12:08:11.259Z,99484.91
2023-03-24T12:11:19.503Z,99485.06
2023-03-24T12:14:04.796Z,99486.10
2023-03-24T12:17:04.178Z,99477.28
2023-03-24T12:23:02.991Z,99471.77
2023-03-24T12:24:34.180Z,99480.65
2023-03-24T12:27:32.349Z,99471.91
2023-03-24T12:30:27.748Z,99471.73
2023-03-24T12:31:47.361Z,99474.83
2023-03-24T12:34:59.731Z,99474.81
2023-03-24T12:38:08.672Z,99467.99
2023-03-24T12:40:52.854Z,99462.34
2023-03-24T12:43:36.510Z,99456.09
2023-03-24T12:48:29.461Z,99459.77
2023-03-24T12:49:55.258Z,99458.28
2023-03-24T12:53:06.858Z,99454.36
2023-03-24T12:55:51.836Z,99453.31
2023-03-24T12:58:42.179Z,99457.53
2023-03-24T13:05:38.254Z,99450.67
2023-03-24T13:08:18.705Z,99444.75
2023-03-24T13:11:08.104Z,99443.55
2023-03-24T13:13:49.413Z,99426.35
2023-03-24T13:16:26.969Z,99435.39
2023-03-24T13:20:45.634Z,99427.22
2023-03-24T13:23:46.792Z,99426.45
2023-03-24T13:26:28.355Z,99424.55
2023-03-24T13:29:05.393Z,99422.52
2023-03-24T13:32:08.852Z,99423.55
2023-03-24T13:34:50.941Z,99417.78
2023-03-24T13:36:14.560Z,99420.07
2023-03-24T13:39:04.986Z,99414.13
2023-03-24T13:41:42.295Z,99412.23
2023-03-24T13:42:58.693Z,99412.27
2023-03-24T13:44:11.025Z,99410.23
2023-03-24T13:47:07.127Z,99410.48
2023-03-24T13:50:14.790Z,99407.07
2023-03-24T13:51:33.086Z,99406.32
2023-03-24T13:52:49.683Z,99404.94
2023-03-24T13:55:30.016Z,99393.27
2023-03-24T13:58:02.709Z,99407.39
2023-03-24T13:59:24.809Z,99400.28
2023-03-24T14:05:10.026Z,99400.42
2023-03-24T14:07:45.125Z,99399.75
2023-03-24T14:10:19.633Z,99396.00
2023-03-24T14:13:03.031Z,99386.99
2023-03-24T14:15:58.147Z,99390.53
2023-03-24T14:18:35.678Z,99390.02
2023-03-24T14:21:31.357Z,99389.34
2023-03-24T14:23:59.663Z,99387.96
2023-03-24T14:25:19.555Z,99387.83
2023-03-24T14:27:57.303Z,99379.97
2023-03-24T14:30:29.007Z,99374.01
2023-03-24T14:32:56.153Z,99378.64
2023-03-24T14:35:48.411Z,99376.42
2023-03-24T14:38:25.361Z,99370.28
2023-03-24T14:41:00.762Z,99370.28
2023-03-24T14:43:55.411Z,99361.15
2023-03-24T14:46:27.624Z,99361.65
2023-03-24T14:49:14.534Z,99364.19
2023-03-24T14:51:56.831Z,99359.21
2023-03-24T14:54:37.611Z,99362.17
2023-03-24T14:55:48.946Z,99367.05
2023-03-24T14:56:59.132Z,99367.70
2023-03-24T14:59:58.496Z,99363.38
2023-03-24T15:01:10.466Z,99359.72
2023-03-24T15:04:11.896Z,99356.30
2023-03-24T15:06:47.530Z,99356.62
2023-03-24T15:09:27.711Z,99337.38
2023-03-24T15:11:59.956Z,99350.91
2023-03-24T15:13:43.290Z,99351.60
2023-03-24T15:14:53.474Z,99348.37
2023-03-24T15:17:25.672Z,99353.58
2023-03-24T15:18:40.310Z,99350.91
2023-03-24T15:19:51.500Z,99348.00
2023-03-24T15:21:00.315Z,99355.38
2023-03-24T15:22:12.473Z,99351.78
2023-03-24T15:23:24.030Z,99353.31
2023-03-24T15:25:54.595Z,99350.63
2023-03-24T15:28:34.063Z,99353.48
2023-03-24T15:31:02.635Z,99349.25
2023-03-24T15:32:22.171Z,99350.38
2023-03-24T15:33:40.480Z,99351.72
2023-03-24T15:36:19.328Z,99349.75
2023-03-24T15:37:40.619Z,99346.20
2023-03-24T15:41:27.144Z,99344.95
2023-03-24T15:42:45.373Z,99356.44
2023-03-24T15:46:32.507Z,99348.63
2023-03-24T15:47:42.091Z,99364.48
2023-03-24T15:51:50.538Z,99365.14
2023-03-24T15:54:27.249Z,99362.05
2023-03-24T15:57:16.950Z,99354.91
2023-03-24T16:01:17.270Z,99362.59
2023-03-24T16:03:54.883Z,99354.33
2023-03-24T16:06:53.461Z,99354.17
2023-03-24T16:08:06.604Z,99364.36
2023-03-24T16:10:43.350Z,99359.80
2023-03-24T16:11:53.814Z,99368.45
2023-03-24T16:14:34.660Z,99368.40
2023-03-24T16:17:03.982Z,99361.11
2023-03-24T16:19:34.446Z,99376.89
2023-03-24T16:21:59.836Z,99371.81
2023-03-24T16:24:26.531Z,99372.64
2023-03-24T16:26:51.721Z,99376.37
2023-03-24T16:29:19.298Z,99374.20
2023-03-24T16:31:57.132Z,99374.20
2023-03-24T16:33:07.744Z,99380.38
2023-03-24T16:35:36.297Z,99379.84
2023-03-24T16:38:02.110Z,99383.58
2023-03-24T16:40:45.829Z,99375.94
2023-03-24T16:41:56.958Z,99375.30
2023-03-24T16:44:23.725Z,99382.39
2023-03-24T16:45:32.214Z,99376.67
2023-03-24T16:46:42.460Z,99387.36
2023-03-24T16:49:12.183Z,99373.75
2023-03-24T16:51:52.260Z,99380.02
2023-03-24T16:54:19.483Z,99386.48
2023-03-24T16:56:43.682Z,99385.31
2023-03-24T16:59:08.687Z,99384.95
2023-03-24T17:01:37.869Z,99390.09
2023-03-24T17:04:10.152Z,99392.98
2023-03-24T17:05:29.430Z,99392.45
2023-03-24T17:07:57.985Z,99393.97
2023-03-24T17:10:27.221Z,99386.67
2023-03-24T17:12:57.684Z,99383.11
2023-03-24T17:15:31.057Z,99388.19
2023-03-24T17:18:00.064Z,99388.38
2023-03-24T17:19:15.289Z,99389.09
2023-03-24T17:21:44.616Z,99387.20
2023-03-24T17:24:13.477Z,99385.31
2023-03-24T17:25:24.328Z,99399.97
2023-03-24T17:27:50.838Z,99392.97
2023-03-24T17:30:34.484Z,99390.25
2023-03-24T17:33:00.413Z,99395.69
2023-03-24T17:35:29.408Z,99389.73
2023-03-24T17:37:54.541Z,99396.37
2023-03-24T17:40:22.104Z,99398.59
2023-03-24T17:42:47.329Z,99386.86
2023-03-24T17:45:18.854Z,99393.65
2023-03-24T17:47:43.904Z,99407.41
2023-03-24T17:50:13.684Z,99398.42
2023-03-24T17:52:46.629Z,99400.45
2023-03-24T17:55:11.994Z,99395.88
2023-03-24T17:57:37.312Z,99395.37
2023-03-24T18:00:05.250Z,99393.84
2023-03-24T18:02:34.228Z,99399.97
2023-03-24T18:04:58.312Z,99402.69
2023-03-24T18:07:25.505Z,99402.17
2023-03-24T18:09:52.234Z,99404.70
2023-03-24T18:12:24.700Z,99406.94
2023-03-24T18:14:49.365Z,99409.98
2023-03-24T18:17:13.542Z,99418.48
2023-03-24T18:19:38.744Z,99407.96
2023-03-24T18:22:03.311Z,99409.14
2023-03-24T18:24:27.542Z,99405.77
2023-03-24T18:26:51.789Z,99406.78
2023-03-24T18:29:16.534Z,99406.95
2023-03-24T18:31:40.845Z,99416.64
2023-03-24T18:34:05.837Z,99417.30
2023-03-24T18:36:31.672Z,99410.67
2023-03-24T18:39:06.160Z,99416.46
2023-03-24T18:41:38.764Z,99417.47
2023-03-24T18:45:24.766Z,99415.94
2023-03-24T18:47:51.066Z,99415.28
2023-03-24T18:50:17.745Z,99415.42
2023-03-24T18:52:42.188Z,99408.31
2023-03-24T18:55:08.888Z,99419.50
2023-03-24T18:57:35.077Z,99420.71
2023-03-24T19:00:01.213Z,99420.85
2023-03-24T19:02:28.895Z,99422.91
2023-03-24T19:04:56.069Z,99416.81
2023-03-24T19:07:27.205Z,99420.88
2023-03-24T19:09:55.991Z,99418.82
2023-03-24T19:12:22.332Z,99416.45
2023-03-24T19:14:46.670Z,99420.34
2023-03-24T19:17:10.642Z,99419.83
2023-03-24T19:19:34.911Z,99417.45
2023-03-24T19:22:00.288Z,99412.53
2023-03-24T19:24:28.783Z,99416.60
2023-03-24T19:26:54.514Z,99418.31
2023-03-24T19:29:18.871Z,99415.59
2023-03-24T19:31:43.606Z,99409.82
2023-03-24T19:34:08.171Z,99414.24
2023-03-24T19:36:33.686Z,99409.82
2023-03-24T19:38:57.423Z,99413.20
2023-03-24T19:41:46.764Z,99409.30
2023-03-24T19:44:11.119Z,99401.33
2023-03-24T19:46:35.629Z,99397.78
2023-03-24T19:49:03.633Z,99397.08
2023-03-24T19:51:31.139Z,99392.33
2023-03-24T19:53:58.290Z,99394.18
2023-03-24T19:56:23.796Z,99387.74
2023-03-24T19:58:49.203Z,99385.03
2023-03-24T20:01:14.385Z,99387.57
2023-03-24T20:03:40.273Z,99390.63
2023-03-24T20:06:10.248Z,99377.05
2023-03-24T20:08:36.352Z,99381.13
2023-03-24T20:11:03.139Z,99381.13
2023-03-24T20:13:27.585Z,99373.12
2023-03-24T20:15:51.527Z,99376.17
2023-03-24T20:18:17.106Z,99371.75
2023-03-24T20:20:41.221Z,99360.20
2023-03-24T20:23:09.437Z,99360.20
2023-03-24T20:25:33.462Z,99354.77
2023-03-24T20:28:02.300Z,99349.68
2023-03-24T20:30:31.209Z,99351.03
2023-03-24T20:32:58.775Z,99346.95
2023-03-24T20:35:25.706Z,99342.38
2023-03-24T20:37:53.346Z,99348.98
2023-03-24T20:40:20.371Z,99334.22
2023-03-24T20:42:44.094Z,99329.63
2023-03-24T20:45:11.409Z,99328.80
2023-03-24T20:47:38.051Z,99329.14
2023-03-24T20:48:47.510Z,99334.02
2023-03-24T20:51:12.932Z,99331.48
2023-03-24T20:53:41.505Z,99324.88
2023-03-24T20:56:08.775Z,99332.11
2023-03-24T20:58:37.616Z,99323.12
2023-03-24T21:01:08.474Z,99324.45
2023-03-24T21:03:36.438Z,99319.54
2023-03-24T21:06:00.908Z,99315.63
2023-03-24T21:08:25.479Z,99319.51
2023-03-24T21:10:56.180Z,99317.97
2023-03-24T21:13:21.917Z,99319.14
2023-03-24T21:15:47.758Z,99315.76
2023-03-24T21:18:13.333Z,99318.94
2023-03-24T21:20:39.367Z,99321.65
2023-03-24T21:23:08.220Z,99316.23
2023-03-24T21:25:33.183Z,99311.84
2023-03-24T21:28:01.003Z,99314.72
2023-03-24T21:30:27.123Z,99311.61
2023-03-24T21:32:55.150Z,99305.81
2023-03-24T21:35:22.906Z,99302.44
2023-03-24T21:37:49.085Z,99306.31
2023-03-24T21:40:19.518Z,99298.66
2023-03-24T21:42:44.779Z,99295.44
2023-03-24T21:45:12.506Z,99296.61
2023-03-24T21:48:00.375Z,99293.85
2023-03-24T21:50:26.694Z,99291.64
2023-03-24T21:52:54.118Z,99294.30
2023-03-24T21:55:23.655Z,99292.92
2023-03-24T22:00:27.757Z,99294.20
2023-03-24T22:02:54.093Z,99287.56
2023-03-24T22:05:23.129Z,99291.59
2023-03-24T22:07:51.187Z,99289.89
2023-03-24T22:10:22.385Z,99285.63
2023-03-24T22:12:53.039Z,99282.09
2023-03-24T22:15:21.174Z,99286.96
2023-03-24T22:17:46.059Z,99280.87
2023-03-24T22:20:15.040Z,99276.94
2023-03-24T22:22:40.834Z,99281.13
2023-03-24T22:25:09.614Z,99283.61
2023-03-24T22:27:36.433Z,99278.52
2023-03-24T22:30:01.436Z,99285.09
2023-03-24T22:32:29.073Z,99276.27
2023-03-24T22:34:56.041Z,99278.45
2023-03-24T22:37:22.508Z,99276.59
2023-03-24T22:39:48.806Z,99267.77
2023-03-24T22:42:15.923Z,99265.06
2023-03-24T22:44:41.960Z,99266.89
2023-03-24T22:47:06.866Z,99262.35
2023-03-24T22:49:33.057Z,99247.11
2023-03-24T22:52:00.873Z,99249.98
2023-03-24T22:54:26.779Z,99244.41
2023-03-24T22:56:52.466Z,99255.94
2023-03-24T22:59:16.234Z,99252.23
2023-03-24T23:01:42.383Z,99250.08
2023-03-24T23:04:07.277Z,99249.20
2023-03-24T23:06:33.454Z,99254.45
2023-03-24T23:08:59.639Z,99254.36
2023-03-24T23:11:26.382Z,99247.46
2023-03-24T23:13:53.525Z,99248.16
2023-03-24T23:16:20.701Z,99248.71
2023-03-24T23:18:47.886Z,99243.80
2023-03-24T23:21:17.133Z,99235.36
2023-03-24T23:23:42.956Z,99242.16
2023-03-24T23:26:26.083Z,99258.10
2023-03-24T23:28:45.224Z,99233.57
2023-03-24T23:31:17.958Z,99233.78
2023-03-24T23:33:44.698Z,99238.70
2023-03-24T23:36:13.696Z,99233.13
2023-03-24T23:38:42.007Z,99228.71
2023-03-24T23:41:06.878Z,99237.66
2023-03-24T23:43:31.712Z,99231.33
2023-03-24T23:45:58.484Z,99232.52
2023-03-24T23:48:24.188Z,99222.53
2023-03-24T23:50:55.923Z,99221.36
2023-03-24T23:53:39.831Z,99211.20
2023-03-24T23:56:06.750Z,99204.62
2023-03-24T23:58:38.630Z,99205.16
